sensor_id;sensor_type;location;lat;lon;timestamp;P1;durP1;ratioP1;P2;durP2;ratioP2
45344;SDS011;31078;48.304;11.896;2022-08-23T00:01:34;6.32;;;3.38;;
45344;SDS011;31078;48.304;11.896;2022-08-23T00:04:04;4.38;;;3.05;;
45344;SDS011;31078;48.304;11.896;2022-08-23T00:06:33;6.95;;;3.00;;
45344;SDS011;31078;48.304;11.896;2022-08-23T00:09:01;5.68;;;3.20;;
45344;SDS011;31078;48.304;11.896;2022-08-23T00:11:29;5.65;;;3.25;;
45344;SDS011;31078;48.304;11.896;2022-08-23T00:14:02;6.53;;;3.00;;
45344;SDS011;31078;48.304;11.896;2022-08-23T00:16:32;4.20;;;2.95;;
45344;SDS011;31078;48.304;11.896;2022-08-23T00:18:59;11.63;;;2.90;;
45344;SDS011;31078;48.304;11.896;2022-08-23T00:21:26;5.25;;;2.90;;
45344;SDS011;31078;48.304;11.896;2022-08-23T00:23:54;10.20;;;3.45;;
45344;SDS011;31078;48.304;11.896;2022-08-23T00:26:22;5.15;;;2.83;;
45344;SDS011;31078;48.304;11.896;2022-08-23T00:28:49;5.10;;;2.97;;
45344;SDS011;31078;48.304;11.896;2022-08-23T00:31:16;5.05;;;2.80;;
45344;SDS011;31078;48.304;11.896;2022-08-23T00:33:43;6.30;;;3.13;;
45344;SDS011;31078;48.304;11.896;2022-08-23T00:36:09;10.20;;;3.50;;
45344;SDS011;31078;48.304;11.896;2022-08-23T00:38:36;7.20;;;3.20;;
45344;SDS011;31078;48.304;11.896;2022-08-23T00:41:03;5.47;;;3.25;;
45344;SDS011;31078;48.304;11.896;2022-08-23T00:43:33;5.85;;;3.20;;
45344;SDS011;31078;48.304;11.896;2022-08-23T00:46:22;6.30;;;3.15;;
45344;SDS011;31078;48.304;11.896;2022-08-23T00:49:18;5.10;;;3.00;;
45344;SDS011;31078;48.304;11.896;2022-08-23T00:51:48;4.75;;;3.30;;
45344;SDS011;31078;48.304;11.896;2022-08-23T00:54:22;4.80;;;2.97;;
45344;SDS011;31078;48.304;11.896;2022-08-23T00:56:51;6.85;;;2.95;;
45344;SDS011;31078;48.304;11.896;2022-08-23T00:59:22;4.88;;;3.70;;
45344;SDS011;31078;48.304;11.896;2022-08-23T01:01:49;6.70;;;3.05;;
45344;SDS011;31078;48.304;11.896;2022-08-23T01:04:17;6.82;;;3.40;;
45344;SDS011;31078;48.304;11.896;2022-08-23T01:06:45;8.88;;;3.75;;
45344;SDS011;31078;48.304;11.896;2022-08-23T01:09:17;8.90;;;4.10;;
45344;SDS011;31078;48.304;11.896;2022-08-23T01:11:47;9.02;;;4.20;;
45344;SDS011;31078;48.304;11.896;2022-08-23T01:14:20;6.70;;;4.28;;
45344;SDS011;31078;48.304;11.896;2022-08-23T01:16:53;5.75;;;3.72;;
45344;SDS011;31078;48.304;11.896;2022-08-23T01:19:24;6.88;;;4.00;;
45344;SDS011;31078;48.304;11.896;2022-08-23T01:21:54;7.15;;;4.25;;
45344;SDS011;31078;48.304;11.896;2022-08-23T01:24:27;7.00;;;4.20;;
45344;SDS011;31078;48.304;11.896;2022-08-23T01:26:54;6.68;;;4.10;;
45344;SDS011;31078;48.304;11.896;2022-08-23T01:29:21;6.75;;;4.28;;
45344;SDS011;31078;48.304;11.896;2022-08-23T01:31:49;4.95;;;3.70;;
45344;SDS011;31078;48.304;11.896;2022-08-23T01:34:16;5.65;;;4.00;;
45344;SDS011;31078;48.304;11.896;2022-08-23T01:36:43;6.35;;;3.92;;
45344;SDS011;31078;48.304;11.896;2022-08-23T01:39:10;5.35;;;4.18;;
45344;SDS011;31078;48.304;11.896;2022-08-23T01:41:38;7.60;;;4.65;;
45344;SDS011;31078;48.304;11.896;2022-08-23T01:44:05;5.28;;;3.90;;
45344;SDS011;31078;48.304;11.896;2022-08-23T01:46:33;12.57;;;5.20;;
45344;SDS011;31078;48.304;11.896;2022-08-23T01:49:01;5.13;;;4.03;;
45344;SDS011;31078;48.304;11.896;2022-08-23T01:51:28;5.45;;;4.30;;
45344;SDS011;31078;48.304;11.896;2022-08-23T01:53:54;12.45;;;4.60;;
45344;SDS011;31078;48.304;11.896;2022-08-23T01:56:21;6.53;;;4.80;;
45344;SDS011;31078;48.304;11.896;2022-08-23T01:58:51;9.95;;;5.03;;
45344;SDS011;31078;48.304;11.896;2022-08-23T02:01:17;6.55;;;5.32;;
45344;SDS011;31078;48.304;11.896;2022-08-23T02:03:44;8.23;;;5.32;;
45344;SDS011;31078;48.304;11.896;2022-08-23T02:06:11;8.30;;;5.22;;
45344;SDS011;31078;48.304;11.896;2022-08-23T02:08:38;11.07;;;5.70;;
45344;SDS011;31078;48.304;11.896;2022-08-23T02:11:22;8.00;;;4.68;;
45344;SDS011;31078;48.304;11.896;2022-08-23T02:13:52;11.50;;;5.90;;
45344;SDS011;31078;48.304;11.896;2022-08-23T02:16:21;10.32;;;6.40;;
45344;SDS011;31078;48.304;11.896;2022-08-23T02:18:49;8.25;;;5.07;;
45344;SDS011;31078;48.304;11.896;2022-08-23T02:21:17;8.02;;;5.38;;
45344;SDS011;31078;48.304;11.896;2022-08-23T02:23:43;8.27;;;5.95;;
45344;SDS011;31078;48.304;11.896;2022-08-23T02:26:11;9.88;;;5.25;;
45344;SDS011;31078;48.304;11.896;2022-08-23T02:28:38;14.93;;;5.90;;
45344;SDS011;31078;48.304;11.896;2022-08-23T02:31:06;9.20;;;6.03;;
45344;SDS011;31078;48.304;11.896;2022-08-23T02:33:33;9.82;;;6.13;;
45344;SDS011;31078;48.304;11.896;2022-08-23T02:35:59;8.48;;;5.32;;
45344;SDS011;31078;48.304;11.896;2022-08-23T02:38:26;8.50;;;5.38;;
45344;SDS011;31078;48.304;11.896;2022-08-23T02:40:53;7.97;;;5.47;;
45344;SDS011;31078;48.304;11.896;2022-08-23T02:43:19;9.45;;;5.40;;
45344;SDS011;31078;48.304;11.896;2022-08-23T02:45:49;8.57;;;5.65;;
45344;SDS011;31078;48.304;11.896;2022-08-23T02:48:18;10.80;;;5.80;;
45344;SDS011;31078;48.304;11.896;2022-08-23T02:50:44;12.50;;;5.85;;
45344;SDS011;31078;48.304;11.896;2022-08-23T02:53:11;7.53;;;5.68;;
45344;SDS011;31078;48.304;11.896;2022-08-23T02:55:38;9.02;;;5.43;;
45344;SDS011;31078;48.304;11.896;2022-08-23T02:58:06;8.23;;;5.15;;
45344;SDS011;31078;48.304;11.896;2022-08-23T03:00:33;10.95;;;5.60;;
45344;SDS011;31078;48.304;11.896;2022-08-23T03:02:59;7.72;;;5.70;;
45344;SDS011;31078;48.304;11.896;2022-08-23T03:05:27;8.77;;;5.05;;
45344;SDS011;31078;48.304;11.896;2022-08-23T03:07:55;8.60;;;5.20;;
45344;SDS011;31078;48.304;11.896;2022-08-23T03:10:22;10.25;;;6.22;;
45344;SDS011;31078;48.304;11.896;2022-08-23T03:12:48;9.55;;;5.78;;
45344;SDS011;31078;48.304;11.896;2022-08-23T03:15:15;10.57;;;6.28;;
45344;SDS011;31078;48.304;11.896;2022-08-23T03:17:48;10.40;;;6.30;;
45344;SDS011;31078;48.304;11.896;2022-08-23T03:20:17;10.07;;;6.60;;
45344;SDS011;31078;48.304;11.896;2022-08-23T03:22:47;10.90;;;6.53;;
45344;SDS011;31078;48.304;11.896;2022-08-23T03:25:16;12.15;;;6.93;;
45344;SDS011;31078;48.304;11.896;2022-08-23T03:27:43;10.15;;;5.97;;
45344;SDS011;31078;48.304;11.896;2022-08-23T03:30:10;10.75;;;6.47;;
45344;SDS011;31078;48.304;11.896;2022-08-23T03:32:37;10.60;;;6.20;;
45344;SDS011;31078;48.304;11.896;2022-08-23T03:35:04;9.35;;;5.78;;
45344;SDS011;31078;48.304;11.896;2022-08-23T03:37:32;12.05;;;6.20;;
45344;SDS011;31078;48.304;11.896;2022-08-23T03:40:00;8.13;;;6.05;;
45344;SDS011;31078;48.304;11.896;2022-08-23T03:42:28;8.95;;;5.70;;
45344;SDS011;31078;48.304;11.896;2022-08-23T03:44:55;11.25;;;6.13;;
45344;SDS011;31078;48.304;11.896;2022-08-23T03:47:21;11.30;;;6.13;;
45344;SDS011;31078;48.304;11.896;2022-08-23T03:49:48;10.18;;;6.47;;
45344;SDS011;31078;48.304;11.896;2022-08-23T03:52:21;9.52;;;6.43;;
45344;SDS011;31078;48.304;11.896;2022-08-23T03:54:49;9.85;;;6.28;;
45344;SDS011;31078;48.304;11.896;2022-08-23T03:57:17;10.82;;;6.93;;
45344;SDS011;31078;48.304;11.896;2022-08-23T03:59:43;9.85;;;6.68;;
45344;SDS011;31078;48.304;11.896;2022-08-23T04:02:10;9.23;;;6.28;;
45344;SDS011;31078;48.304;11.896;2022-08-23T04:04:37;14.73;;;7.90;;
45344;SDS011;31078;48.304;11.896;2022-08-23T04:07:04;13.65;;;7.35;;
45344;SDS011;31078;48.304;11.896;2022-08-23T04:09:30;13.02;;;7.15;;
45344;SDS011;31078;48.304;11.896;2022-08-23T04:11:57;13.35;;;7.47;;
45344;SDS011;31078;48.304;11.896;2022-08-23T04:14:25;9.70;;;7.00;;
45344;SDS011;31078;48.304;11.896;2022-08-23T04:16:51;11.00;;;7.63;;
45344;SDS011;31078;48.304;11.896;2022-08-23T04:19:18;10.25;;;7.13;;
45344;SDS011;31078;48.304;11.896;2022-08-23T04:21:46;9.95;;;6.95;;
45344;SDS011;31078;48.304;11.896;2022-08-23T04:24:15;9.65;;;6.60;;
45344;SDS011;31078;48.304;11.896;2022-08-23T04:26:42;10.63;;;6.63;;
45344;SDS011;31078;48.304;11.896;2022-08-23T04:29:09;10.95;;;6.90;;
45344;SDS011;31078;48.304;11.896;2022-08-23T04:31:42;10.45;;;6.70;;
45344;SDS011;31078;48.304;11.896;2022-08-23T04:34:08;10.02;;;6.72;;
45344;SDS011;31078;48.304;11.896;2022-08-23T04:36:36;12.15;;;6.47;;
45344;SDS011;31078;48.304;11.896;2022-08-23T04:39:04;11.65;;;6.97;;
45344;SDS011;31078;48.304;11.896;2022-08-23T04:41:31;11.52;;;6.45;;
45344;SDS011;31078;48.304;11.896;2022-08-23T04:44:15;11.15;;;6.80;;
45344;SDS011;31078;48.304;11.896;2022-08-23T04:46:44;11.57;;;6.68;;
45344;SDS011;31078;48.304;11.896;2022-08-23T04:49:12;14.05;;;6.93;;
45344;SDS011;31078;48.304;11.896;2022-08-23T04:51:39;10.60;;;6.78;;
45344;SDS011;31078;48.304;11.896;2022-08-23T04:54:06;10.98;;;7.03;;
45344;SDS011;31078;48.304;11.896;2022-08-23T04:56:32;10.40;;;6.60;;
45344;SDS011;31078;48.304;11.896;2022-08-23T04:58:59;8.10;;;6.22;;
45344;SDS011;31078;48.304;11.896;2022-08-23T05:01:27;9.07;;;6.63;;
45344;SDS011;31078;48.304;11.896;2022-08-23T05:03:55;9.00;;;6.55;;
45344;SDS011;31078;48.304;11.896;2022-08-23T05:06:23;11.40;;;6.50;;
45344;SDS011;31078;48.304;11.896;2022-08-23T05:11:15;14.77;;;7.30;;
45344;SDS011;31078;48.304;11.896;2022-08-23T05:13:43;11.57;;;7.22;;
45344;SDS011;31078;48.304;11.896;2022-08-23T05:16:09;14.85;;;7.97;;
45344;SDS011;31078;48.304;11.896;2022-08-23T05:18:36;13.35;;;8.15;;
45344;SDS011;31078;48.304;11.896;2022-08-23T05:21:04;15.93;;;8.68;;
45344;SDS011;31078;48.304;11.896;2022-08-23T05:23:31;13.40;;;7.90;;
45344;SDS011;31078;48.304;11.896;2022-08-23T05:25:58;17.50;;;8.50;;
45344;SDS011;31078;48.304;11.896;2022-08-23T05:28:26;16.00;;;8.82;;
45344;SDS011;31078;48.304;11.896;2022-08-23T05:30:55;11.45;;;8.55;;
45344;SDS011;31078;48.304;11.896;2022-08-23T05:33:24;9.45;;;7.43;;
45344;SDS011;31078;48.304;11.896;2022-08-23T05:35:51;13.27;;;7.82;;
45344;SDS011;31078;48.304;11.896;2022-08-23T05:38:20;14.93;;;7.40;;
45344;SDS011;31078;48.304;11.896;2022-08-23T05:40:47;11.75;;;7.07;;
45344;SDS011;31078;48.304;11.896;2022-08-23T05:43:15;11.18;;;7.07;;
45344;SDS011;31078;48.304;11.896;2022-08-23T05:45:42;12.77;;;6.78;;
45344;SDS011;31078;48.304;11.896;2022-08-23T05:48:08;11.73;;;6.82;;
45344;SDS011;31078;48.304;11.896;2022-08-23T05:50:35;13.27;;;7.07;;
45344;SDS011;31078;48.304;11.896;2022-08-23T05:53:02;9.32;;;6.30;;
45344;SDS011;31078;48.304;11.896;2022-08-23T05:55:30;12.73;;;6.85;;
45344;SDS011;31078;48.304;11.896;2022-08-23T05:57:57;12.38;;;7.32;;
45344;SDS011;31078;48.304;11.896;2022-08-23T06:00:24;12.02;;;7.03;;
45344;SDS011;31078;48.304;11.896;2022-08-23T06:02:52;11.40;;;7.00;;
45344;SDS011;31078;48.304;11.896;2022-08-23T06:05:19;14.38;;;7.13;;
45344;SDS011;31078;48.304;11.896;2022-08-23T06:07:46;11.57;;;7.20;;
45344;SDS011;31078;48.304;11.896;2022-08-23T06:10:13;11.75;;;6.78;;
45344;SDS011;31078;48.304;11.896;2022-08-23T06:12:41;13.05;;;7.00;;
45344;SDS011;31078;48.304;11.896;2022-08-23T06:15:07;10.73;;;7.13;;
45344;SDS011;31078;48.304;11.896;2022-08-23T06:17:34;13.20;;;7.60;;
45344;SDS011;31078;48.304;11.896;2022-08-23T06:20:01;13.80;;;7.43;;
45344;SDS011;31078;48.304;11.896;2022-08-23T06:22:29;10.75;;;6.75;;
45344;SDS011;31078;48.304;11.896;2022-08-23T06:24:57;11.20;;;7.00;;
45344;SDS011;31078;48.304;11.896;2022-08-23T06:27:23;11.77;;;6.97;;
45344;SDS011;31078;48.304;11.896;2022-08-23T06:29:51;11.10;;;7.10;;
45344;SDS011;31078;48.304;11.896;2022-08-23T06:32:17;13.32;;;6.90;;
45344;SDS011;31078;48.304;11.896;2022-08-23T06:34:44;12.40;;;6.95;;
45344;SDS011;31078;48.304;11.896;2022-08-23T06:37:12;12.10;;;7.10;;
45344;SDS011;31078;48.304;11.896;2022-08-23T06:39:40;9.90;;;7.03;;
45344;SDS011;31078;48.304;11.896;2022-08-23T06:42:07;10.75;;;6.50;;
45344;SDS011;31078;48.304;11.896;2022-08-23T06:44:36;11.40;;;7.38;;
45344;SDS011;31078;48.304;11.896;2022-08-23T06:47:05;12.15;;;6.70;;
45344;SDS011;31078;48.304;11.896;2022-08-23T06:49:33;11.88;;;6.50;;
45344;SDS011;31078;48.304;11.896;2022-08-23T06:52:00;14.07;;;7.45;;
45344;SDS011;31078;48.304;11.896;2022-08-23T06:54:30;14.85;;;7.20;;
45344;SDS011;31078;48.304;11.896;2022-08-23T06:56:59;10.77;;;5.70;;
45344;SDS011;31078;48.304;11.896;2022-08-23T06:59:26;12.73;;;6.78;;
45344;SDS011;31078;48.304;11.896;2022-08-23T07:01:54;13.05;;;7.05;;
45344;SDS011;31078;48.304;11.896;2022-08-23T07:04:24;13.77;;;6.55;;
45344;SDS011;31078;48.304;11.896;2022-08-23T07:06:53;12.48;;;6.50;;
45344;SDS011;31078;48.304;11.896;2022-08-23T07:09:20;11.27;;;6.32;;
45344;SDS011;31078;48.304;11.896;2022-08-23T07:11:47;10.43;;;6.60;;
45344;SDS011;31078;48.304;11.896;2022-08-23T07:14:14;10.60;;;6.25;;
45344;SDS011;31078;48.304;11.896;2022-08-23T07:16:44;9.13;;;5.78;;
45344;SDS011;31078;48.304;11.896;2022-08-23T07:19:13;12.43;;;6.18;;
45344;SDS011;31078;48.304;11.896;2022-08-23T07:21:43;13.35;;;6.30;;
45344;SDS011;31078;48.304;11.896;2022-08-23T07:24:10;7.90;;;5.43;;
45344;SDS011;31078;48.304;11.896;2022-08-23T07:26:37;9.25;;;5.65;;
45344;SDS011;31078;48.304;11.896;2022-08-23T07:29:05;9.80;;;5.00;;
45344;SDS011;31078;48.304;11.896;2022-08-23T07:31:34;8.88;;;5.40;;
45344;SDS011;31078;48.304;11.896;2022-08-23T07:34:04;7.70;;;4.75;;
45344;SDS011;31078;48.304;11.896;2022-08-23T07:36:34;11.02;;;5.30;;
45344;SDS011;31078;48.304;11.896;2022-08-23T07:39:04;9.40;;;5.32;;
45344;SDS011;31078;48.304;11.896;2022-08-23T07:41:32;10.75;;;5.03;;
45344;SDS011;31078;48.304;11.896;2022-08-23T07:44:00;8.80;;;4.82;;
45344;SDS011;31078;48.304;11.896;2022-08-23T07:46:28;7.40;;;4.82;;
45344;SDS011;31078;48.304;11.896;2022-08-23T07:48:57;6.80;;;3.92;;
45344;SDS011;31078;48.304;11.896;2022-08-23T07:51:24;7.63;;;4.55;;
45344;SDS011;31078;48.304;11.896;2022-08-23T07:53:52;9.98;;;4.60;;
45344;SDS011;31078;48.304;11.896;2022-08-23T07:56:20;7.18;;;4.40;;
45344;SDS011;31078;48.304;11.896;2022-08-23T07:58:47;6.75;;;4.03;;
45344;SDS011;31078;48.304;11.896;2022-08-23T08:01:15;7.32;;;4.28;;
45344;SDS011;31078;48.304;11.896;2022-08-23T08:03:43;8.98;;;4.15;;
45344;SDS011;31078;48.304;11.896;2022-08-23T08:06:12;8.30;;;5.45;;
45344;SDS011;31078;48.304;11.896;2022-08-23T08:08:42;10.73;;;5.22;;
45344;SDS011;31078;48.304;11.896;2022-08-23T08:11:09;11.88;;;4.32;;
45344;SDS011;31078;48.304;11.896;2022-08-23T08:13:38;12.90;;;5.90;;
45344;SDS011;31078;48.304;11.896;2022-08-23T08:16:06;9.20;;;4.05;;
45344;SDS011;31078;48.304;11.896;2022-08-23T08:18:33;6.18;;;2.95;;
45344;SDS011;31078;48.304;11.896;2022-08-23T08:21:00;6.95;;;2.70;;
45344;SDS011;31078;48.304;11.896;2022-08-23T08:23:27;9.85;;;4.20;;
45344;SDS011;31078;48.304;11.896;2022-08-23T08:26:00;6.95;;;3.00;;
45344;SDS011;31078;48.304;11.896;2022-08-23T08:28:29;8.07;;;3.45;;
45344;SDS011;31078;48.304;11.896;2022-08-23T08:30:57;7.40;;;3.03;;
45344;SDS011;31078;48.304;11.896;2022-08-23T08:33:24;7.97;;;3.75;;
45344;SDS011;31078;48.304;11.896;2022-08-23T08:35:50;7.32;;;3.40;;
45344;SDS011;31078;48.304;11.896;2022-08-23T08:38:17;4.72;;;2.80;;
45344;SDS011;31078;48.304;11.896;2022-08-23T08:40:46;7.68;;;2.90;;
45344;SDS011;31078;48.304;11.896;2022-08-23T08:43:20;9.05;;;3.10;;
45344;SDS011;31078;48.304;11.896;2022-08-23T08:46:01;6.00;;;2.63;;
45344;SDS011;31078;48.304;11.896;2022-08-23T08:48:33;6.93;;;2.90;;
45344;SDS011;31078;48.304;11.896;2022-08-23T08:51:15;8.63;;;3.25;;
45344;SDS011;31078;48.304;11.896;2022-08-23T08:53:55;5.43;;;2.28;;
45344;SDS011;31078;48.304;11.896;2022-08-23T08:56:25;8.63;;;3.85;;
45344;SDS011;31078;48.304;11.896;2022-08-23T08:58:54;8.13;;;3.45;;
45344;SDS011;31078;48.304;11.896;2022-08-23T09:01:26;7.20;;;3.60;;
45344;SDS011;31078;48.304;11.896;2022-08-23T09:03:55;11.13;;;4.20;;
45344;SDS011;31078;48.304;11.896;2022-08-23T09:06:23;8.35;;;3.53;;
45344;SDS011;31078;48.304;11.896;2022-08-23T09:09:00;8.48;;;3.38;;
45344;SDS011;31078;48.304;11.896;2022-08-23T09:11:37;8.68;;;3.70;;
45344;SDS011;31078;48.304;11.896;2022-08-23T09:14:15;6.65;;;3.33;;
45344;SDS011;31078;48.304;11.896;2022-08-23T09:16:59;8.90;;;3.38;;
45344;SDS011;31078;48.304;11.896;2022-08-23T09:19:28;11.40;;;3.78;;
45344;SDS011;31078;48.304;11.896;2022-08-23T09:22:00;7.53;;;3.03;;
45344;SDS011;31078;48.304;11.896;2022-08-23T09:24:30;10.07;;;3.95;;
45344;SDS011;31078;48.304;11.896;2022-08-23T09:26:57;10.05;;;3.67;;
45344;SDS011;31078;48.304;11.896;2022-08-23T09:29:24;7.18;;;3.33;;
45344;SDS011;31078;48.304;11.896;2022-08-23T09:31:53;10.50;;;4.47;;
45344;SDS011;31078;48.304;11.896;2022-08-23T09:34:36;7.40;;;3.13;;
45344;SDS011;31078;48.304;11.896;2022-08-23T09:37:09;9.52;;;4.25;;
45344;SDS011;31078;48.304;11.896;2022-08-23T09:39:39;9.93;;;3.25;;
45344;SDS011;31078;48.304;11.896;2022-08-23T09:42:08;9.82;;;3.45;;
45344;SDS011;31078;48.304;11.896;2022-08-23T09:44:55;8.10;;;3.17;;
45344;SDS011;31078;48.304;11.896;2022-08-23T09:47:29;10.13;;;3.95;;
45344;SDS011;31078;48.304;11.896;2022-08-23T09:49:58;9.73;;;3.75;;
45344;SDS011;31078;48.304;11.896;2022-08-23T09:52:34;8.25;;;3.08;;
45344;SDS011;31078;48.304;11.896;2022-08-23T09:55:03;6.13;;;3.20;;
45344;SDS011;31078;48.304;11.896;2022-08-23T09:57:32;9.23;;;2.65;;
45344;SDS011;31078;48.304;11.896;2022-08-23T10:00:00;8.52;;;3.38;;
45344;SDS011;31078;48.304;11.896;2022-08-23T10:02:44;7.95;;;2.90;;
45344;SDS011;31078;48.304;11.896;2022-08-23T10:05:17;7.95;;;3.03;;
45344;SDS011;31078;48.304;11.896;2022-08-23T10:07:52;5.78;;;2.65;;
45344;SDS011;31078;48.304;11.896;2022-08-23T10:10:24;11.60;;;3.10;;
45344;SDS011;31078;48.304;11.896;2022-08-23T10:12:56;5.90;;;2.50;;
45344;SDS011;31078;48.304;11.896;2022-08-23T10:15:26;7.68;;;2.83;;
45344;SDS011;31078;48.304;11.896;2022-08-23T10:18:07;11.25;;;3.03;;
45344;SDS011;31078;48.304;11.896;2022-08-23T10:20:46;6.78;;;2.78;;
45344;SDS011;31078;48.304;11.896;2022-08-23T10:23:22;7.35;;;2.67;;
45344;SDS011;31078;48.304;11.896;2022-08-23T10:25:59;7.03;;;2.33;;
45344;SDS011;31078;48.304;11.896;2022-08-23T10:28:30;9.68;;;3.08;;
45344;SDS011;31078;48.304;11.896;2022-08-23T10:31:23;8.10;;;2.88;;
45344;SDS011;31078;48.304;11.896;2022-08-23T10:34:02;5.78;;;2.42;;
45344;SDS011;31078;48.304;11.896;2022-08-23T10:36:43;5.40;;;2.60;;
45344;SDS011;31078;48.304;11.896;2022-08-23T10:39:17;7.35;;;2.80;;
45344;SDS011;31078;48.304;11.896;2022-08-23T10:41:51;7.45;;;2.55;;
45344;SDS011;31078;48.304;11.896;2022-08-23T10:44:29;5.50;;;2.35;;
45344;SDS011;31078;48.304;11.896;2022-08-23T10:47:06;9.10;;;3.17;;
45344;SDS011;31078;48.304;11.896;2022-08-23T10:49:41;6.60;;;2.72;;
45344;SDS011;31078;48.304;11.896;2022-08-23T10:52:11;5.60;;;2.45;;
45344;SDS011;31078;48.304;11.896;2022-08-23T10:54:45;5.80;;;2.30;;
45344;SDS011;31078;48.304;11.896;2022-08-23T10:57:26;7.20;;;2.70;;
45344;SDS011;31078;48.304;11.896;2022-08-23T10:59:56;5.35;;;2.13;;
45344;SDS011;31078;48.304;11.896;2022-08-23T11:02:25;5.63;;;2.72;;
45344;SDS011;31078;48.304;11.896;2022-08-23T11:05:01;4.65;;;2.53;;
45344;SDS011;31078;48.304;11.896;2022-08-23T11:07:32;6.25;;;2.63;;
45344;SDS011;31078;48.304;11.896;2022-08-23T11:10:08;4.85;;;2.40;;
45344;SDS011;31078;48.304;11.896;2022-08-23T11:12:48;7.10;;;2.67;;
45344;SDS011;31078;48.304;11.896;2022-08-23T11:15:20;7.50;;;2.53;;
45344;SDS011;31078;48.304;11.896;2022-08-23T11:18:01;5.80;;;2.53;;
45344;SDS011;31078;48.304;11.896;2022-08-23T11:23:35;6.43;;;2.70;;
45344;SDS011;31078;48.304;11.896;2022-08-23T11:26:06;6.15;;;2.58;;
45344;SDS011;31078;48.304;11.896;2022-08-23T11:28:36;8.18;;;2.90;;
45344;SDS011;31078;48.304;11.896;2022-08-23T11:31:19;6.97;;;3.10;;
45344;SDS011;31078;48.304;11.896;2022-08-23T11:33:57;7.82;;;2.97;;
45344;SDS011;31078;48.304;11.896;2022-08-23T11:36:27;10.35;;;3.05;;
45344;SDS011;31078;48.304;11.896;2022-08-23T11:39:07;6.53;;;2.60;;
45344;SDS011;31078;48.304;11.896;2022-08-23T11:41:57;7.90;;;2.70;;
45344;SDS011;31078;48.304;11.896;2022-08-23T11:44:32;5.88;;;2.60;;
45344;SDS011;31078;48.304;11.896;2022-08-23T11:47:02;6.32;;;3.00;;
45344;SDS011;31078;48.304;11.896;2022-08-23T11:52:27;7.40;;;3.08;;
45344;SDS011;31078;48.304;11.896;2022-08-23T11:55:11;6.30;;;2.50;;
45344;SDS011;31078;48.304;11.896;2022-08-23T11:58:03;6.07;;;2.42;;
45344;SDS011;31078;48.304;11.896;2022-08-23T12:00:51;5.55;;;2.55;;
45344;SDS011;31078;48.304;11.896;2022-08-23T12:03:22;5.38;;;2.63;;
45344;SDS011;31078;48.304;11.896;2022-08-23T12:06:11;4.65;;;2.47;;
45344;SDS011;31078;48.304;11.896;2022-08-23T12:09:00;4.95;;;2.20;;
45344;SDS011;31078;48.304;11.896;2022-08-23T12:14:34;5.45;;;2.58;;
45344;SDS011;31078;48.304;11.896;2022-08-23T12:20:20;5.90;;;2.53;;
45344;SDS011;31078;48.304;11.896;2022-08-23T12:23:02;4.45;;;2.17;;
45344;SDS011;31078;48.304;11.896;2022-08-23T12:25:32;6.68;;;2.40;;
45344;SDS011;31078;48.304;11.896;2022-08-23T12:28:01;5.13;;;2.22;;
45344;SDS011;31078;48.304;11.896;2022-08-23T12:30:36;5.72;;;2.15;;
45344;SDS011;31078;48.304;11.896;2022-08-23T12:33:19;5.63;;;2.72;;
45344;SDS011;31078;48.304;11.896;2022-08-23T12:35:53;6.55;;;2.50;;
45344;SDS011;31078;48.304;11.896;2022-08-23T12:38:33;6.97;;;2.67;;
45344;SDS011;31078;48.304;11.896;2022-08-23T12:41:12;5.53;;;2.70;;
45344;SDS011;31078;48.304;11.896;2022-08-23T12:43:52;6.57;;;2.33;;
45344;SDS011;31078;48.304;11.896;2022-08-23T12:46:30;6.15;;;2.53;;
45344;SDS011;31078;48.304;11.896;2022-08-23T12:49:01;6.68;;;2.60;;
45344;SDS011;31078;48.304;11.896;2022-08-23T12:51:29;8.18;;;2.85;;
45344;SDS011;31078;48.304;11.896;2022-08-23T12:53:56;6.15;;;2.60;;
45344;SDS011;31078;48.304;11.896;2022-08-23T12:56:38;8.00;;;3.10;;
45344;SDS011;31078;48.304;11.896;2022-08-23T12:59:05;8.73;;;3.03;;
45344;SDS011;31078;48.304;11.896;2022-08-23T13:01:47;5.82;;;2.78;;
45344;SDS011;31078;48.304;11.896;2022-08-23T13:04:14;6.80;;;2.90;;
45344;SDS011;31078;48.304;11.896;2022-08-23T13:06:41;6.90;;;2.90;;
45344;SDS011;31078;48.304;11.896;2022-08-23T13:09:13;9.15;;;2.80;;
45344;SDS011;31078;48.304;11.896;2022-08-23T13:11:46;5.63;;;2.63;;
45344;SDS011;31078;48.304;11.896;2022-08-23T13:14:21;5.55;;;2.67;;
45344;SDS011;31078;48.304;11.896;2022-08-23T13:16:50;6.20;;;2.97;;
45344;SDS011;31078;48.304;11.896;2022-08-23T13:19:18;5.85;;;2.85;;
45344;SDS011;31078;48.304;11.896;2022-08-23T13:24:35;5.78;;;2.53;;
45344;SDS011;31078;48.304;11.896;2022-08-23T13:27:10;5.15;;;2.50;;
45344;SDS011;31078;48.304;11.896;2022-08-23T13:29:47;7.90;;;2.53;;
45344;SDS011;31078;48.304;11.896;2022-08-23T13:32:25;6.85;;;2.85;;
45344;SDS011;31078;48.304;11.896;2022-08-23T13:34:54;5.68;;;2.50;;
45344;SDS011;31078;48.304;11.896;2022-08-23T13:37:49;5.30;;;1.80;;
45344;SDS011;31078;48.304;11.896;2022-08-23T13:40:23;4.43;;;2.30;;
45344;SDS011;31078;48.304;11.896;2022-08-23T13:42:52;4.85;;;2.67;;
45344;SDS011;31078;48.304;11.896;2022-08-23T13:45:24;5.68;;;2.30;;
45344;SDS011;31078;48.304;11.896;2022-08-23T13:47:54;7.63;;;2.78;;
45344;SDS011;31078;48.304;11.896;2022-08-23T13:50:28;5.35;;;2.53;;
45344;SDS011;31078;48.304;11.896;2022-08-23T13:52:56;6.60;;;2.70;;
45344;SDS011;31078;48.304;11.896;2022-08-23T13:55:24;6.20;;;2.63;;
45344;SDS011;31078;48.304;11.896;2022-08-23T13:57:52;5.13;;;2.50;;
45344;SDS011;31078;48.304;11.896;2022-08-23T14:00:20;4.65;;;2.13;;
45344;SDS011;31078;48.304;11.896;2022-08-23T14:02:47;5.47;;;2.65;;
45344;SDS011;31078;48.304;11.896;2022-08-23T14:05:15;6.28;;;2.38;;
45344;SDS011;31078;48.304;11.896;2022-08-23T14:07:44;5.93;;;2.42;;
45344;SDS011;31078;48.304;11.896;2022-08-23T14:10:12;6.10;;;2.80;;
45344;SDS011;31078;48.304;11.896;2022-08-23T14:12:39;4.85;;;2.25;;
45344;SDS011;31078;48.304;11.896;2022-08-23T14:15:10;5.35;;;2.70;;
45344;SDS011;31078;48.304;11.896;2022-08-23T14:17:39;6.32;;;2.53;;
45344;SDS011;31078;48.304;11.896;2022-08-23T14:20:07;4.90;;;2.70;;
45344;SDS011;31078;48.304;11.896;2022-08-23T14:22:36;6.65;;;3.08;;
45344;SDS011;31078;48.304;11.896;2022-08-23T14:25:04;7.93;;;3.53;;
45344;SDS011;31078;48.304;11.896;2022-08-23T14:27:31;6.35;;;2.40;;
45344;SDS011;31078;48.304;11.896;2022-08-23T14:29:58;6.18;;;2.70;;
45344;SDS011;31078;48.304;11.896;2022-08-23T14:32:26;7.82;;;2.50;;
45344;SDS011;31078;48.304;11.896;2022-08-23T14:34:53;4.30;;;2.13;;
45344;SDS011;31078;48.304;11.896;2022-08-23T14:37:20;7.20;;;3.05;;
45344;SDS011;31078;48.304;11.896;2022-08-23T14:39:46;5.30;;;2.40;;
45344;SDS011;31078;48.304;11.896;2022-08-23T14:42:15;7.82;;;2.50;;
45344;SDS011;31078;48.304;11.896;2022-08-23T14:44:44;5.40;;;2.67;;
45344;SDS011;31078;48.304;11.896;2022-08-23T14:47:10;5.45;;;2.25;;
45344;SDS011;31078;48.304;11.896;2022-08-23T14:49:37;9.32;;;4.35;;
45344;SDS011;31078;48.304;11.896;2022-08-23T14:52:03;5.05;;;2.50;;
45344;SDS011;31078;48.304;11.896;2022-08-23T14:54:30;6.20;;;3.22;;
45344;SDS011;31078;48.304;11.896;2022-08-23T14:56:58;5.53;;;2.70;;
45344;SDS011;31078;48.304;11.896;2022-08-23T14:59:25;5.60;;;3.20;;
45344;SDS011;31078;48.304;11.896;2022-08-23T15:01:52;5.93;;;2.42;;
45344;SDS011;31078;48.304;11.896;2022-08-23T15:04:22;4.45;;;2.22;;
45344;SDS011;31078;48.304;11.896;2022-08-23T15:06:49;8.02;;;2.45;;